Time;durP1;ratioP1;P1;durP2;ratioP2;P2;SDS_P1;SDS_P2;PMS_P1;PMS_P2;Temp;Humidity;BMP_temperature;BMP_pressure;BME280_temperature;BME280_humidity;BME280_pressure;Samples;Min_cycle;Max_cycle;Signal;HPM_P1;HPM_P2
2021/07/27 00:02:05;;;;;;;3.33;2.80;;;;;;;;;;4982616;28;20225;-82
2021/07/27 00:04:31;;;;;;;2.97;2.80;;;;;;;;;;4999163;28;20244;-81
2021/07/27 00:06:58;;;;;;;3.28;2.97;;;;;;;;;;4999506;28;20597;-81
2021/07/27 00:09:24;;;;;;;2.80;2.70;;;;;;;;;;4981660;28;20801;-82
2021/07/27 00:11:51;;;;;;;3.50;3.05;;;;;;;;;;4981844;28;20260;-81
2021/07/27 00:14:18;;;;;;;3.08;2.88;;;;;;;;;;4995652;28;20241;-82
2021/07/27 00:16:44;;;;;;;2.92;2.72;;;;;;;;;;4995659;28;20257;-81
2021/07/27 00:19:12;;;;;;;2.92;2.72;;;;;;;;;;4978531;28;20238;-81
2021/07/27 00:21:39;;;;;;;3.20;2.90;;;;;;;;;;4995994;28;20218;-81
2021/07/27 00:24:06;;;;;;;3.22;2.78;;;;;;;;;;4996104;28;20213;-82
2021/07/27 00:26:34;;;;;;;3.30;3.10;;;;;;;;;;4978071;28;20666;-81
2021/07/27 00:29:01;;;;;;;3.03;2.70;;;;;;;;;;4978956;28;20229;-82
2021/07/27 00:31:28;;;;;;;3.28;3.03;;;;;;;;;;4996570;28;20217;-82
2021/07/27 00:33:54;;;;;;;3.63;2.70;;;;;;;;;;4978357;28;20256;-81
2021/07/27 00:36:22;;;;;;;4.90;3.05;;;;;;;;;;4978327;28;20653;-80
2021/07/27 00:38:49;;;;;;;3.25;2.85;;;;;;;;;;4978208;28;20264;-81
2021/07/27 00:41:16;;;;;;;2.83;2.63;;;;;;;;;;4978675;28;20205;-81
2021/07/27 00:43:42;;;;;;;3.55;3.25;;;;;;;;;;4995703;28;20210;-80
2021/07/27 00:46:09;;;;;;;3.88;2.92;;;;;;;;;;4978353;28;20197;-80
2021/07/27 00:48:36;;;;;;;3.70;3.40;;;;;;;;;;4995325;28;20230;-80
2021/07/27 00:51:02;;;;;;;3.35;2.75;;;;;;;;;;4978442;28;20260;-82
2021/07/27 00:53:30;;;;;;;3.20;3.00;;;;;;;;;;4995626;28;20573;-81
2021/07/27 00:55:57;;;;;;;3.33;3.05;;;;;;;;;;4977725;28;20257;-81
2021/07/27 00:58:24;;;;;;;3.20;2.97;;;;;;;;;;4995711;28;20205;-81
2021/07/27 01:00:51;;;;;;;3.22;3.00;;;;;;;;;;4978490;28;20204;-81
2021/07/27 01:03:18;;;;;;;3.63;3.33;;;;;;;;;;4978047;28;20201;-81
2021/07/27 01:05:46;;;;;;;4.90;3.20;;;;;;;;;;4995386;28;20248;-81
2021/07/27 01:08:13;;;;;;;3.17;2.85;;;;;;;;;;4995796;28;20220;-81
2021/07/27 01:10:41;;;;;;;3.45;3.15;;;;;;;;;;4977951;28;20189;-81
2021/07/27 01:13:08;;;;;;;3.40;3.20;;;;;;;;;;4995044;28;20220;-81
2021/07/27 01:15:35;;;;;;;4.27;3.20;;;;;;;;;;4977172;28;20686;-81
2021/07/27 01:18:05;;;;;;;3.53;3.23;;;;;;;;;;4977740;28;20213;-81
2021/07/27 01:20:46;;;;;;;3.40;3.10;;;;;;;;;;4977992;28;20256;-81
2021/07/27 01:39:42;;;;;;;3.30;3.00;;;;;;;;;;4995129;28;20205;-81
2021/07/27 01:42:10;;;;;;;3.72;3.42;;;;;;;;;;4995020;28;20214;-81
2021/07/27 01:44:45;;;;;;;3.40;3.10;;;;;;;;;;4994671;28;20182;-81
2021/07/27 01:47:13;;;;;;;4.10;3.13;;;;;;;;;;4994329;28;20301;-81
2021/07/27 01:49:40;;;;;;;3.50;3.20;;;;;;;;;;4994732;28;20216;-81
2021/07/27 01:52:10;;;;;;;4.60;3.10;;;;;;;;;;4977352;28;20230;-81
2021/07/27 01:54:57;;;;;;;3.60;3.30;;;;;;;;;;4994508;28;20252;-81
2021/07/27 01:57:27;;;;;;;3.03;2.83;;;;;;;;;;4994918;28;20284;-81
2021/07/27 02:00:00;;;;;;;3.63;3.33;;;;;;;;;;4994310;28;20225;-81
2021/07/27 02:02:27;;;;;;;6.43;3.10;;;;;;;;;;4976698;28;20206;-80
2021/07/27 02:04:54;;;;;;;4.20;3.55;;;;;;;;;;4977060;28;20202;-81
2021/07/27 02:07:20;;;;;;;3.50;3.20;;;;;;;;;;4977245;28;20874;-81
2021/07/27 02:09:49;;;;;;;5.73;3.00;;;;;;;;;;4976537;28;20198;-81
2021/07/27 02:12:19;;;;;;;3.50;3.20;;;;;;;;;;4994523;28;20212;-81
2021/07/27 02:15:05;;;;;;;3.80;3.50;;;;;;;;;;4976617;28;20272;-81
2021/07/27 02:17:32;;;;;;;6.90;3.40;;;;;;;;;;4976450;28;20303;-82
2021/07/27 02:19:59;;;;;;;3.70;3.50;;;;;;;;;;4976845;28;20243;-81
2021/07/27 02:22:26;;;;;;;3.77;3.47;;;;;;;;;;4994417;28;20216;-81
2021/07/27 02:24:52;;;;;;;3.57;3.17;;;;;;;;;;4993882;28;20237;-81
2021/07/27 02:27:20;;;;;;;5.23;3.47;;;;;;;;;;4976800;28;20237;-81
2021/07/27 02:29:47;;;;;;;3.77;3.30;;;;;;;;;;4993695;28;20248;-81
2021/07/27 02:32:14;;;;;;;3.33;3.13;;;;;;;;;;4993779;28;20209;-81
2021/07/27 02:34:40;;;;;;;3.63;3.40;;;;;;;;;;4994229;28;20534;-82
2021/07/27 02:37:07;;;;;;;3.60;3.40;;;;;;;;;;4993336;28;20705;-80
2021/07/27 02:39:34;;;;;;;4.70;3.60;;;;;;;;;;4975775;28;20225;-80
2021/07/27 02:42:00;;;;;;;10.30;3.40;;;;;;;;;;4994235;28;20216;-80
2021/07/27 02:44:28;;;;;;;3.70;3.50;;;;;;;;;;4993691;28;20209;-81
2021/07/27 02:46:55;;;;;;;3.83;3.53;;;;;;;;;;4976245;28;20206;-81
2021/07/27 02:49:22;;;;;;;4.00;3.30;;;;;;;;;;4975976;28;20263;-80
2021/07/27 02:51:49;;;;;;;3.80;3.57;;;;;;;;;;4975541;28;20681;-82
2021/07/27 02:54:16;;;;;;;3.50;3.20;;;;;;;;;;4994034;28;20564;-81
2021/07/27 02:56:43;;;;;;;3.43;3.13;;;;;;;;;;4993079;28;20264;-80
2021/07/27 02:59:10;;;;;;;3.37;3.07;;;;;;;;;;4993449;28;20272;-80
2021/07/27 03:01:38;;;;;;;4.63;3.40;;;;;;;;;;4976014;28;20253;-81
2021/07/27 03:04:04;;;;;;;4.93;3.40;;;;;;;;;;4994065;28;20213;-81
2021/07/27 03:06:32;;;;;;;4.50;3.50;;;;;;;;;;4993917;28;20221;-81
2021/07/27 03:09:15;;;;;;;3.80;3.50;;;;;;;;;;4993402;28;20577;-80
2021/07/27 03:11:42;;;;;;;3.97;3.63;;;;;;;;;;4975975;28;20217;-80
2021/07/27 03:14:09;;;;;;;3.70;3.50;;;;;;;;;;4991836;28;20654;-79
2021/07/27 03:16:35;;;;;;;6.70;3.40;;;;;;;;;;4975693;28;20241;-80
2021/07/27 03:19:03;;;;;;;3.93;3.60;;;;;;;;;;4975668;28;20237;-79
2021/07/27 03:21:30;;;;;;;3.87;3.57;;;;;;;;;;4975703;28;20264;-80
2021/07/27 03:23:57;;;;;;;3.20;3.00;;;;;;;;;;4993621;28;20331;-80
2021/07/27 03:26:24;;;;;;;3.83;3.53;;;;;;;;;;4993633;28;20246;-79
2021/07/27 03:28:51;;;;;;;3.60;3.30;;;;;;;;;;4993407;28;20206;-80
2021/07/27 03:31:18;;;;;;;3.60;3.27;;;;;;;;;;4993385;28;20244;-80
2021/07/27 03:33:45;;;;;;;3.63;3.40;;;;;;;;;;4975927;28;20193;-79
2021/07/27 03:36:13;;;;;;;3.90;3.60;;;;;;;;;;4993144;28;20261;-79
2021/07/27 03:38:40;;;;;;;3.60;3.30;;;;;;;;;;4993260;28;20214;-80
2021/07/27 03:41:07;;;;;;;4.20;3.80;;;;;;;;;;4975678;28;20264;-79
2021/07/27 03:43:34;;;;;;;3.50;3.30;;;;;;;;;;4993269;28;20205;-80
2021/07/27 03:46:00;;;;;;;3.73;3.53;;;;;;;;;;4993058;28;20214;-80
2021/07/27 03:48:27;;;;;;;3.97;3.60;;;;;;;;;;4994221;28;20258;-79
2021/07/27 03:50:54;;;;;;;4.10;3.70;;;;;;;;;;4979073;28;20245;-81
2021/07/27 03:53:23;;;;;;;3.97;3.60;;;;;;;;;;4996450;28;20214;-81
2021/07/27 03:55:49;;;;;;;3.90;3.63;;;;;;;;;;4996735;28;20214;-80
2021/07/27 03:58:16;;;;;;;4.13;3.83;;;;;;;;;;4979329;28;20242;-80
2021/07/27 04:00:43;;;;;;;4.43;4.13;;;;;;;;;;4978989;28;20233;-81
2021/07/27 04:03:09;;;;;;;5.93;4.03;;;;;;;;;;4979445;28;20189;-81
2021/07/27 04:05:36;;;;;;;4.30;3.90;;;;;;;;;;4996699;28;20210;-81
2021/07/27 04:08:03;;;;;;;4.30;3.50;;;;;;;;;;4996657;28;20214;-82
2021/07/27 04:10:31;;;;;;;4.20;3.73;;;;;;;;;;4996513;28;20210;-82
2021/07/27 04:12:58;;;;;;;4.40;4.00;;;;;;;;;;4996043;28;20249;-81
2021/07/27 04:15:43;;;;;;;3.50;3.30;;;;;;;;;;4978534;28;20210;-81
2021/07/27 04:18:10;;;;;;;4.30;4.00;;;;;;;;;;4995739;28;20301;-79
2021/07/27 04:20:37;;;;;;;4.20;3.73;;;;;;;;;;4978788;28;20225;-80
2021/07/27 04:23:04;;;;;;;4.10;3.80;;;;;;;;;;4996340;28;20194;-80
2021/07/27 04:25:32;;;;;;;4.77;4.37;;;;;;;;;;4979083;28;20201;-80
2021/07/27 04:27:59;;;;;;;4.50;4.10;;;;;;;;;;4978823;28;20264;-82
2021/07/27 04:30:26;;;;;;;4.20;3.80;;;;;;;;;;4978183;28;20230;-82
2021/07/27 04:32:52;;;;;;;4.60;4.20;;;;;;;;;;4978261;28;20240;-81
2021/07/27 04:35:19;;;;;;;4.20;3.90;;;;;;;;;;4995944;28;20255;-81
2021/07/27 04:37:46;;;;;;;5.10;3.93;;;;;;;;;;4995270;28;20257;-81
2021/07/27 04:40:13;;;;;;;4.30;3.97;;;;;;;;;;4978498;28;20229;-82
2021/07/27 04:42:41;;;;;;;4.30;4.00;;;;;;;;;;4995995;28;20182;-81
2021/07/27 04:45:08;;;;;;;4.83;4.23;;;;;;;;;;4978067;28;20206;-79
2021/07/27 04:47:35;;;;;;;5.07;4.57;;;;;;;;;;4978337;28;20535;-82
2021/07/27 04:50:03;;;;;;;4.73;4.33;;;;;;;;;;4978755;28;20226;-81
2021/07/27 04:52:31;;;;;;;5.60;4.30;;;;;;;;;;4978578;28;20228;-81
2021/07/27 04:54:57;;;;;;;4.67;4.17;;;;;;;;;;4978034;28;20209;-80
2021/07/27 04:57:24;;;;;;;4.23;3.93;;;;;;;;;;4977830;28;20241;-80
2021/07/27 04:59:52;;;;;;;4.70;4.23;;;;;;;;;;4995179;28;20218;-80
2021/07/27 05:02:19;;;;;;;4.60;4.20;;;;;;;;;;4995505;28;20214;-81
2021/07/27 05:04:45;;;;;;;4.00;3.70;;;;;;;;;;4995971;28;20273;-80
2021/07/27 05:07:12;;;;;;;4.17;3.83;;;;;;;;;;4978186;28;20213;-79
2021/07/27 05:09:39;;;;;;;4.73;4.33;;;;;;;;;;4995650;28;20213;-80
2021/07/27 05:12:07;;;;;;;4.40;4.00;;;;;;;;;;4978346;28;20616;-80
2021/07/27 05:14:34;;;;;;;4.50;4.20;;;;;;;;;;4977715;28;20209;-80
2021/07/27 05:17:09;;;;;;;5.10;4.67;;;;;;;;;;4977710;28;20249;-80
2021/07/27 05:19:35;;;;;;;6.20;4.40;;;;;;;;;;4994665;28;20240;-79
2021/07/27 05:22:03;;;;;;;6.30;4.73;;;;;;;;;;4995242;28;20532;-79
2021/07/27 05:24:30;;;;;;;5.27;3.90;;;;;;;;;;4994934;28;20232;-80
2021/07/27 05:26:56;;;;;;;4.70;4.33;;;;;;;;;;4995422;28;20186;-79
2021/07/27 05:29:23;;;;;;;5.77;4.70;;;;;;;;;;4994962;28;20201;-79
2021/07/27 05:31:50;;;;;;;4.63;4.33;;;;;;;;;;4977360;28;20213;-78
2021/07/27 05:34:18;;;;;;;4.70;4.30;;;;;;;;;;4977201;28;20205;-79
2021/07/27 05:36:45;;;;;;;4.87;4.00;;;;;;;;;;4976650;28;20673;-80
2021/07/27 05:39:11;;;;;;;4.57;4.23;;;;;;;;;;4994477;28;20210;-79
2021/07/27 05:41:38;;;;;;;5.73;4.60;;;;;;;;;;4994553;28;20229;-80
2021/07/27 05:44:05;;;;;;;4.77;4.37;;;;;;;;;;4994218;28;20214;-79
2021/07/27 05:46:32;;;;;;;8.77;4.57;;;;;;;;;;4976939;28;20210;-79
2021/07/27 05:48:58;;;;;;;7.83;4.47;;;;;;;;;;4994046;28;20264;-79
2021/07/27 05:51:27;;;;;;;5.68;4.30;;;;;;;;;;4977363;28;20230;-80
2021/07/27 05:53:53;;;;;;;4.70;4.40;;;;;;;;;;4977057;28;20229;-80
2021/07/27 05:56:20;;;;;;;5.20;4.67;;;;;;;;;;4994789;28;20178;-80
2021/07/27 05:58:47;;;;;;;5.95;4.30;;;;;;;;;;4977099;28;20238;-82
2021/07/27 06:01:13;;;;;;;5.45;4.25;;;;;;;;;;4976811;28;20229;-81
2021/07/27 06:03:40;;;;;;;5.63;4.07;;;;;;;;;;4994351;28;20186;-81
2021/07/27 06:06:07;;;;;;;4.53;4.13;;;;;;;;;;4993775;28;20205;-82
2021/07/27 06:08:35;;;;;;;4.57;4.07;;;;;;;;;;4976389;28;20206;-82
2021/07/27 06:11:04;;;;;;;4.50;4.03;;;;;;;;;;4993301;28;20213;-82
2021/07/27 06:13:30;;;;;;;5.18;4.05;;;;;;;;;;4994225;28;20237;-82
2021/07/27 06:16:01;;;;;;;4.87;4.23;;;;;;;;;;4976553;28;20665;-82
2021/07/27 06:18:28;;;;;;;7.50;4.43;;;;;;;;;;4976675;28;20253;-81
2021/07/27 06:20:54;;;;;;;5.43;4.00;;;;;;;;;;4976358;28;20256;-81
2021/07/27 06:23:21;;;;;;;5.75;4.07;;;;;;;;;;4994020;28;20189;-82
2021/07/27 06:25:49;;;;;;;4.53;4.17;;;;;;;;;;4993748;28;20244;-83
2021/07/27 06:28:16;;;;;;;4.35;3.90;;;;;;;;;;4976363;28;20720;-82
2021/07/27 06:30:42;;;;;;;4.57;4.18;;;;;;;;;;4993966;28;20620;-85
2021/07/27 06:33:09;;;;;;;4.30;4.00;;;;;;;;;;4976561;28;20646;-82
2021/07/27 06:35:36;;;;;;;4.70;4.30;;;;;;;;;;4993659;28;20249;-82
2021/07/27 06:38:02;;;;;;;4.20;3.90;;;;;;;;;;4976105;28;20262;-82
2021/07/27 06:40:29;;;;;;;4.40;4.07;;;;;;;;;;4976831;28;20557;-83
2021/07/27 06:42:57;;;;;;;4.60;4.20;;;;;;;;;;4976266;28;20568;-82
2021/07/27 06:45:24;;;;;;;5.18;4.20;;;;;;;;;;4976037;28;20709;-82
2021/07/27 06:47:50;;;;;;;4.15;3.85;;;;;;;;;;4967939;28;20258;-81
2021/07/27 06:50:17;;;;;;;4.93;4.35;;;;;;;;;;4972973;28;20222;-82
2021/07/27 06:52:44;;;;;;;4.10;3.70;;;;;;;;;;4973028;28;20729;-82
2021/07/27 06:55:10;;;;;;;4.13;3.83;;;;;;;;;;4956802;28;20563;-82
2021/07/27 06:57:37;;;;;;;5.90;4.13;;;;;;;;;;4973800;28;20675;-82
2021/07/27 07:00:05;;;;;;;5.75;4.30;;;;;;;;;;4974160;28;20686;-81
2021/07/27 07:02:34;;;;;;;5.82;4.00;;;;;;;;;;4974350;28;20206;-82
2021/07/27 07:05:00;;;;;;;6.40;4.60;;;;;;;;;;4956979;28;20293;-82
2021/07/27 07:07:27;;;;;;;4.97;4.35;;;;;;;;;;4974950;28;20202;-82
2021/07/27 07:09:54;;;;;;;3.90;3.58;;;;;;;;;;4957160;28;20202;-82
2021/07/27 07:12:20;;;;;;;4.18;3.88;;;;;;;;;;4956928;28;20194;-82
2021/07/27 07:14:47;;;;;;;4.00;3.70;;;;;;;;;;4972876;28;20198;-82
2021/07/27 07:17:15;;;;;;;4.03;3.70;;;;;;;;;;4972911;28;20203;-82
2021/07/27 07:19:42;;;;;;;4.30;4.00;;;;;;;;;;4956690;28;20686;-82
2021/07/27 07:22:08;;;;;;;5.18;3.58;;;;;;;;;;4974979;28;20737;-82
2021/07/27 07:24:35;;;;;;;3.70;3.50;;;;;;;;;;4976519;28;20234;-82
2021/07/27 07:27:02;;;;;;;4.20;3.80;;;;;;;;;;4960661;28;20228;-81
2021/07/27 07:29:29;;;;;;;4.10;3.80;;;;;;;;;;4977963;28;20206;-81
2021/07/27 07:31:55;;;;;;;3.70;3.50;;;;;;;;;;4960287;28;20206;-81
2021/07/27 07:34:23;;;;;;;5.00;4.05;;;;;;;;;;4960461;28;20213;-82
2021/07/27 07:36:51;;;;;;;4.90;3.75;;;;;;;;;;4960285;28;20210;-82
2021/07/27 07:39:18;;;;;;;3.97;3.65;;;;;;;;;;4960402;28;20305;-82
2021/07/27 07:41:44;;;;;;;3.75;3.45;;;;;;;;;;4960177;28;20190;-82
2021/07/27 07:44:11;;;;;;;5.65;4.60;;;;;;;;;;4960225;28;20206;-82
2021/07/27 07:46:37;;;;;;;5.97;4.70;;;;;;;;;;4977526;28;20186;-82
2021/07/27 07:49:06;;;;;;;4.20;3.78;;;;;;;;;;4977643;28;20289;-82
2021/07/27 07:51:35;;;;;;;5.18;3.55;;;;;;;;;;4979571;28;20248;-83
2021/07/27 07:54:02;;;;;;;3.95;3.63;;;;;;;;;;4996581;28;20252;-82
2021/07/27 07:56:28;;;;;;;4.82;3.80;;;;;;;;;;4996901;28;20182;-81
2021/07/27 07:58:55;;;;;;;4.13;3.45;;;;;;;;;;4978839;28;20256;-82
2021/07/27 08:01:22;;;;;;;3.97;3.67;;;;;;;;;;4978967;28;20565;-82
2021/07/27 08:03:48;;;;;;;5.78;3.67;;;;;;;;;;4978942;28;20202;-82
2021/07/27 08:06:15;;;;;;;4.20;3.90;;;;;;;;;;4978861;28;20206;-82
2021/07/27 08:08:43;;;;;;;4.88;3.88;;;;;;;;;;4978811;28;20212;-82
2021/07/27 08:11:10;;;;;;;3.85;3.65;;;;;;;;;;4979006;28;20233;-82
2021/07/27 08:13:36;;;;;;;5.30;4.13;;;;;;;;;;4978234;28;20748;-82
2021/07/27 08:16:07;;;;;;;5.20;3.92;;;;;;;;;;4996466;28;20217;-82
2021/07/27 08:18:34;;;;;;;4.85;4.07;;;;;;;;;;4996124;28;20253;-82
2021/07/27 08:21:00;;;;;;;4.68;4.20;;;;;;;;;;4978391;28;20252;-82
2021/07/27 08:23:27;;;;;;;6.47;4.25;;;;;;;;;;4978791;28;20197;-81
2021/07/27 08:25:55;;;;;;;5.07;4.25;;;;;;;;;;4978329;28;20280;-82
2021/07/27 08:28:22;;;;;;;6.53;3.85;;;;;;;;;;4996158;28;20210;-82
2021/07/27 08:30:48;;;;;;;4.45;4.05;;;;;;;;;;4995553;28;20214;-81
2021/07/27 08:33:15;;;;;;;4.25;3.85;;;;;;;;;;4977798;28;20241;-82
2021/07/27 08:35:42;;;;;;;4.00;3.65;;;;;;;;;;4977798;28;20264;-82
2021/07/27 08:38:08;;;;;;;3.80;3.55;;;;;;;;;;4978323;28;20252;-82
2021/07/27 08:40:36;;;;;;;4.07;3.78;;;;;;;;;;4995834;28;20206;-82
2021/07/27 08:43:05;;;;;;;3.75;3.55;;;;;;;;;;4995930;28;20657;-82
2021/07/27 08:45:32;;;;;;;4.55;3.80;;;;;;;;;;4978012;28;20202;-81
2021/07/27 08:47:59;;;;;;;3.47;3.17;;;;;;;;;;4995401;28;20237;-82
2021/07/27 08:50:27;;;;;;;3.50;3.30;;;;;;;;;;4978434;28;20229;-82
2021/07/27 08:52:53;;;;;;;3.70;3.40;;;;;;;;;;4978290;28;20201;-83
2021/07/27 08:55:20;;;;;;;4.13;3.83;;;;;;;;;;4978162;28;20287;-82
2021/07/27 08:57:48;;;;;;;4.35;4.00;;;;;;;;;;4978056;28;20210;-82
2021/07/27 09:00:16;;;;;;;4.22;3.78;;;;;;;;;;4994483;28;20627;-82
2021/07/27 09:02:43;;;;;;;6.68;4.43;;;;;;;;;;4995737;28;20210;-82
2021/07/27 09:05:10;;;;;;;3.90;3.60;;;;;;;;;;4977451;28;20593;-81
2021/07/27 09:07:37;;;;;;;4.40;3.78;;;;;;;;;;4977978;28;20240;-82
2021/07/27 09:10:11;;;;;;;6.70;3.80;;;;;;;;;;4994832;28;20245;-82
2021/07/27 09:12:38;;;;;;;5.57;3.70;;;;;;;;;;4994179;28;20202;-82
2021/07/27 09:15:05;;;;;;;6.90;3.97;;;;;;;;;;4995468;28;20241;-82
2021/07/27 09:17:33;;;;;;;3.88;3.58;;;;;;;;;;4977831;28;20194;-86
2021/07/27 09:20:00;;;;;;;4.13;3.83;;;;;;;;;;4995258;28;20267;-80
2021/07/27 09:22:26;;;;;;;5.95;3.75;;;;;;;;;;4977304;28;20214;-79
2021/07/27 09:24:53;;;;;;;3.55;3.25;;;;;;;;;;4977396;28;20256;-80
2021/07/27 09:27:27;;;;;;;4.15;3.85;;;;;;;;;;4994729;28;20241;-79
2021/07/27 09:29:53;;;;;;;3.92;3.63;;;;;;;;;;4995184;28;20229;-79
2021/07/27 09:32:21;;;;;;;4.05;3.75;;;;;;;;;;4977861;28;20225;-80
2021/07/27 09:34:50;;;;;;;3.88;3.65;;;;;;;;;;4977452;28;20190;-80
2021/07/27 09:37:18;;;;;;;3.80;3.50;;;;;;;;;;4977648;28;20633;-80
2021/07/27 09:39:44;;;;;;;3.67;3.47;;;;;;;;;;4977553;28;20276;-79
2021/07/27 09:42:11;;;;;;;3.78;3.58;;;;;;;;;;4977072;28;20198;-81
2021/07/27 09:44:38;;;;;;;4.20;3.90;;;;;;;;;;4976181;28;20205;-82
2021/07/27 09:47:05;;;;;;;3.67;3.38;;;;;;;;;;4994559;28;20288;-80
2021/07/27 09:49:32;;;;;;;5.18;3.80;;;;;;;;;;4994081;28;20206;-82
2021/07/27 09:52:00;;;;;;;4.55;3.97;;;;;;;;;;4976608;28;20740;-82
2021/07/27 09:54:27;;;;;;;4.97;3.88;;;;;;;;;;4977428;28;20194;-82
2021/07/27 09:56:55;;;;;;;4.22;3.83;;;;;;;;;;4994645;28;20681;-82
2021/07/27 09:59:22;;;;;;;4.32;3.85;;;;;;;;;;4994374;28;20253;-81
2021/07/27 10:01:50;;;;;;;4.35;3.78;;;;;;;;;;4994242;28;20217;-82
2021/07/27 10:04:21;;;;;;;4.30;4.00;;;;;;;;;;4976501;28;20214;-82
2021/07/27 10:06:48;;;;;;;4.13;3.65;;;;;;;;;;4976415;28;20210;-83
2021/07/27 10:09:24;;;;;;;4.63;4.00;;;;;;;;;;4994938;28;20181;-81
2021/07/27 10:11:51;;;;;;;4.03;3.72;;;;;;;;;;4994440;28;20213;-79
2021/07/27 10:14:18;;;;;;;5.75;3.90;;;;;;;;;;4976992;28;20225;-79
2021/07/27 10:16:45;;;;;;;3.58;3.28;;;;;;;;;;4976426;28;20728;-81
2021/07/27 10:19:13;;;;;;;4.32;3.90;;;;;;;;;;4994267;28;20232;-81
2021/07/27 10:21:40;;;;;;;4.25;3.75;;;;;;;;;;4976464;28;20206;-83
2021/07/27 10:24:12;;;;;;;3.97;3.67;;;;;;;;;;4993548;28;20217;-79
2021/07/27 10:26:40;;;;;;;3.72;3.42;;;;;;;;;;4994190;28;20178;-83
2021/07/27 10:29:07;;;;;;;4.28;3.88;;;;;;;;;;4976548;28;20606;-80
2021/07/27 10:31:34;;;;;;;6.82;3.60;;;;;;;;;;4976437;28;20201;-83
2021/07/27 10:34:02;;;;;;;4.95;4.55;;;;;;;;;;4976760;28;20198;-82
2021/07/27 10:36:32;;;;;;;3.53;3.30;;;;;;;;;;4993974;28;20210;-84
2021/07/27 10:39:05;;;;;;;4.70;4.25;;;;;;;;;;4993836;28;20205;-81
2021/07/27 10:41:35;;;;;;;5.32;3.67;;;;;;;;;;4993786;28;20576;-82
2021/07/27 10:44:05;;;;;;;4.13;3.83;;;;;;;;;;4975890;28;20674;-83
2021/07/27 10:46:35;;;;;;;4.72;3.78;;;;;;;;;;4976495;28;20190;-85
2021/07/27 10:49:01;;;;;;;8.18;3.97;;;;;;;;;;4993364;28;20299;-86
2021/07/27 10:51:29;;;;;;;4.03;3.80;;;;;;;;;;4975775;28;20229;-84
2021/07/27 10:53:57;;;;;;;4.40;4.00;;;;;;;;;;4976014;28;20205;-81
2021/07/27 10:56:28;;;;;;;4.40;4.00;;;;;;;;;;4975704;28;20669;-84
2021/07/27 10:58:54;;;;;;;5.60;3.60;;;;;;;;;;4976376;28;20202;-83
2021/07/27 11:01:29;;;;;;;4.82;3.72;;;;;;;;;;4976143;28;20247;-83
2021/07/27 11:03:56;;;;;;;4.10;3.53;;;;;;;;;;4976327;28;20669;-84
2021/07/27 11:06:23;;;;;;;4.60;4.03;;;;;;;;;;4976138;28;20205;-85
2021/07/27 11:08:59;;;;;;;4.28;3.95;;;;;;;;;;4993178;28;20232;-84
2021/07/27 11:11:25;;;;;;;4.68;4.30;;;;;;;;;;4976454;28;20193;-84
2021/07/27 11:13:53;;;;;;;4.70;3.83;;;;;;;;;;4993354;28;20256;-84
2021/07/27 11:16:19;;;;;;;7.07;3.80;;;;;;;;;;4976035;28;20202;-84
2021/07/27 11:18:48;;;;;;;4.20;3.63;;;;;;;;;;4976053;28;20205;-85
2021/07/27 11:21:15;;;;;;;4.18;3.78;;;;;;;;;;4993644;28;20229;-86
2021/07/27 11:23:41;;;;;;;4.00;3.70;;;;;;;;;;4976196;28;20208;-86
2021/07/27 11:26:08;;;;;;;4.80;3.75;;;;;;;;;;4976073;28;20212;-84
2021/07/27 11:28:35;;;;;;;5.28;3.90;;;;;;;;;;4976064;28;20201;-85
2021/07/27 11:31:02;;;;;;;4.18;3.88;;;;;;;;;;4993304;28;20244;-84
2021/07/27 11:33:29;;;;;;;4.57;4.18;;;;;;;;;;4975911;28;20268;-85
2021/07/27 11:35:59;;;;;;;4.38;3.97;;;;;;;;;;4975456;28;20231;-85
2021/07/27 11:38:27;;;;;;;4.68;3.70;;;;;;;;;;4993580;28;20216;-85
2021/07/27 11:41:03;;;;;;;4.55;4.10;;;;;;;;;;4993182;28;20268;-84
2021/07/27 11:43:31;;;;;;;4.22;3.80;;;;;;;;;;4975924;28;20206;-86
2021/07/27 11:46:04;;;;;;;6.05;4.13;;;;;;;;;;4975681;28;20562;-85
2021/07/27 11:48:32;;;;;;;3.63;3.30;;;;;;;;;;4963139;28;20230;-84
2021/07/27 11:51:00;;;;;;;3.95;3.75;;;;;;;;;;4956340;28;20227;-85
2021/07/27 11:53:28;;;;;;;4.43;4.03;;;;;;;;;;4973588;28;20577;-84
2021/07/27 11:55:55;;;;;;;4.32;4.03;;;;;;;;;;4972356;28;20206;-85
2021/07/27 11:58:25;;;;;;;4.95;4.53;;;;;;;;;;4972589;28;20222;-84
2021/07/27 12:00:55;;;;;;;4.30;3.90;;;;;;;;;;4973817;28;20810;-82
2021/07/27 12:03:24;;;;;;;4.70;3.60;;;;;;;;;;4956665;28;20195;-83
2021/07/27 12:05:50;;;;;;;4.35;4.00;;;;;;;;;;4956529;28;20218;-83
2021/07/27 12:08:19;;;;;;;3.88;3.53;;;;;;;;;;4956552;28;20254;-84
2021/07/27 12:10:46;;;;;;;4.50;4.10;;;;;;;;;;4959841;28;20199;-83
2021/07/27 12:13:12;;;;;;;4.32;3.88;;;;;;;;;;4960201;28;20320;-83
2021/07/27 12:15:39;;;;;;;4.05;3.75;;;;;;;;;;4975867;28;20198;-83
2021/07/27 12:18:06;;;;;;;3.80;3.60;;;;;;;;;;4959943;28;20240;-82
2021/07/27 12:20:33;;;;;;;3.65;3.45;;;;;;;;;;4975796;28;20698;-83
2021/07/27 12:22:59;;;;;;;4.78;4.47;;;;;;;;;;4975770;28;20197;-83
2021/07/27 12:25:27;;;;;;;3.97;3.67;;;;;;;;;;4977196;28;20190;-83
2021/07/27 12:27:54;;;;;;;4.03;3.75;;;;;;;;;;4959713;28;20279;-83
2021/07/27 12:30:22;;;;;;;4.20;3.80;;;;;;;;;;4975614;28;20218;-84
2021/07/27 12:32:48;;;;;;;3.42;3.28;;;;;;;;;;4975253;28;20257;-83
2021/07/27 12:35:15;;;;;;;4.45;4.05;;;;;;;;;;4959480;28;20198;-83
2021/07/27 12:37:42;;;;;;;4.10;3.90;;;;;;;;;;4959533;28;20195;-83
2021/07/27 12:40:09;;;;;;;4.63;3.60;;;;;;;;;;4959511;28;20238;-83
2021/07/27 12:42:37;;;;;;;4.32;4.03;;;;;;;;;;4959429;28;20183;-83
2021/07/27 12:45:07;;;;;;;3.70;3.50;;;;;;;;;;4959389;28;20558;-83
2021/07/27 12:47:35;;;;;;;3.53;3.33;;;;;;;;;;4958844;28;20235;-84
2021/07/27 12:50:01;;;;;;;4.03;3.70;;;;;;;;;;4959218;28;20223;-84
2021/07/27 12:52:28;;;;;;;4.82;3.90;;;;;;;;;;4976585;28;20214;-83
2021/07/27 12:54:55;;;;;;;4.40;4.10;;;;;;;;;;4959271;28;20206;-84
2021/07/27 12:57:22;;;;;;;4.18;3.80;;;;;;;;;;4976667;28;20242;-88
2021/07/27 12:59:57;;;;;;;4.25;3.95;;;;;;;;;;4960029;28;20210;-85
2021/07/27 13:02:24;;;;;;;4.55;4.15;;;;;;;;;;4977174;28;20635;-86
2021/07/27 13:04:51;;;;;;;4.40;3.70;;;;;;;;;;4959957;28;20218;-81
2021/07/27 13:07:18;;;;;;;4.38;4.07;;;;;;;;;;4960007;28;20206;-83
2021/07/27 13:09:46;;;;;;;4.43;4.00;;;;;;;;;;4975381;28;20206;-83
2021/07/27 13:12:13;;;;;;;4.43;4.03;;;;;;;;;;4975991;28;20246;-82
2021/07/27 13:14:40;;;;;;;4.43;3.95;;;;;;;;;;4975441;28;20203;-83
2021/07/27 13:17:10;;;;;;;4.50;4.10;;;;;;;;;;4958772;28;20238;-82
2021/07/27 13:19:36;;;;;;;4.28;3.97;;;;;;;;;;4975769;28;20215;-83
2021/07/27 13:22:05;;;;;;;4.63;4.30;;;;;;;;;;4976297;28;20237;-83
2021/07/27 13:24:32;;;;;;;6.07;3.97;;;;;;;;;;4976137;28;20242;-84
2021/07/27 13:27:04;;;;;;;5.28;4.78;;;;;;;;;;4974440;28;20244;-84
2021/07/27 13:29:31;;;;;;;6.05;4.50;;;;;;;;;;4958639;28;20199;-84
2021/07/27 13:32:00;;;;;;;5.45;4.50;;;;;;;;;;4975900;28;20255;-84
2021/07/27 13:34:28;;;;;;;5.10;4.70;;;;;;;;;;4958682;28;20195;-84
2021/07/27 13:36:55;;;;;;;4.95;4.55;;;;;;;;;;4958744;28;20202;-83
2021/07/27 13:39:22;;;;;;;7.10;4.30;;;;;;;;;;4958444;28;20202;-83
2021/07/27 13:41:48;;;;;;;4.50;4.20;;;;;;;;;;4976098;28;20238;-84
2021/07/27 13:44:15;;;;;;;4.40;4.00;;;;;;;;;;4958697;28;20249;-84
2021/07/27 13:46:42;;;;;;;4.35;4.00;;;;;;;;;;4974804;28;20198;-85
2021/07/27 13:49:08;;;;;;;5.38;4.28;;;;;;;;;;4974508;28;20301;-84
2021/07/27 13:51:37;;;;;;;7.53;4.90;;;;;;;;;;4973911;28;20218;-84
2021/07/27 13:54:04;;;;;;;4.47;4.18;;;;;;;;;;4975255;28;20242;-85
2021/07/27 13:56:34;;;;;;;4.95;4.55;;;;;;;;;;4975587;28;20179;-84
2021/07/27 13:59:03;;;;;;;6.10;4.13;;;;;;;;;;4975487;28;20241;-82
2021/07/27 14:01:32;;;;;;;5.60;4.60;;;;;;;;;;4973619;28;20761;-82
2021/07/27 14:04:01;;;;;;;4.97;4.32;;;;;;;;;;4958297;28;20599;-84
2021/07/27 14:06:28;;;;;;;5.00;4.60;;;;;;;;;;4958129;28;20206;-83
2021/07/27 14:08:59;;;;;;;4.75;4.43;;;;;;;;;;4975316;28;20209;-83
2021/07/27 14:11:25;;;;;;;5.32;4.82;;;;;;;;;;4975053;28;20741;-83
2021/07/27 14:13:52;;;;;;;4.68;4.28;;;;;;;;;;4957525;28;20257;-83
2021/07/27 14:16:19;;;;;;;8.05;4.65;;;;;;;;;;4957358;28;20233;-82
2021/07/27 14:18:45;;;;;;;7.05;4.78;;;;;;;;;;4975011;28;20187;-83
2021/07/27 14:21:12;;;;;;;7.38;4.60;;;;;;;;;;4974920;28;20635;-82
2021/07/27 14:23:39;;;;;;;5.05;4.50;;;;;;;;;;4957422;28;20229;-82
2021/07/27 14:26:07;;;;;;;6.70;4.85;;;;;;;;;;4957394;28;20213;-83
2021/07/27 14:28:35;;;;;;;6.38;4.68;;;;;;;;;;4974704;28;20190;-83
2021/07/27 14:31:02;;;;;;;4.70;4.30;;;;;;;;;;4973309;28;20214;-82
2021/07/27 14:33:28;;;;;;;4.75;4.35;;;;;;;;;;4974446;28;20178;-83
2021/07/27 14:35:55;;;;;;;7.18;5.07;;;;;;;;;;4974779;28;20179;-82
2021/07/27 14:38:22;;;;;;;4.85;4.45;;;;;;;;;;4973386;28;20198;-83
2021/07/27 14:40:48;;;;;;;5.72;5.00;;;;;;;;;;4974516;28;20218;-83
2021/07/27 14:43:16;;;;;;;5.32;4.30;;;;;;;;;;4972930;28;20258;-83
2021/07/27 14:45:43;;;;;;;7.40;4.20;;;;;;;;;;4974328;28;20615;-83
2021/07/27 14:48:13;;;;;;;4.57;4.13;;;;;;;;;;4966573;28;20705;-83
2021/07/27 14:50:43;;;;;;;6.20;4.80;;;;;;;;;;4993799;28;20217;-82
2021/07/27 14:53:09;;;;;;;5.72;4.22;;;;;;;;;;4975887;28;20677;-82
2021/07/27 14:55:36;;;;;;;4.88;4.57;;;;;;;;;;4993296;28;20248;-82
2021/07/27 14:58:04;;;;;;;4.63;4.32;;;;;;;;;;4993344;28;20233;-81
2021/07/27 15:00:33;;;;;;;5.78;4.28;;;;;;;;;;4976240;28;20591;-83
2021/07/27 15:02:59;;;;;;;4.72;4.43;;;;;;;;;;4992710;28;20268;-82